Time;durP1;ratioP1;P1;durP2;ratioP2;P2;SDS_P1;SDS_P2;PMS_P1;PMS_P2;Temp;Humidity;BMP_temperature;BMP_pressure;BME280_temperature;BME280_humidity;BME280_pressure;Samples;Min_cycle;Max_cycle;Signal;HPM_P1;HPM_P2
2021/12/09 00:00:43;;;;;;;17.83;8.43;;;4.10;99.90;;;;;;5109705;27;20314;-83
2021/12/09 00:03:10;;;;;;;16.00;9.10;;;4.10;99.90;;;;;;5109557;28;20280;-83
2021/12/09 00:05:38;;;;;;;18.90;9.50;;;4.10;99.90;;;;;;5109182;27;20207;-82
2021/12/09 00:08:06;;;;;;;24.07;9.83;;;4.10;99.90;;;;;;5109784;28;20514;-83
2021/12/09 00:10:34;;;;;;;20.33;8.87;;;4.10;99.90;;;;;;5110028;28;20200;-83
2021/12/09 00:13:04;;;;;;;18.47;9.43;;;4.10;99.90;;;;;;5109733;28;20297;-79
2021/12/09 00:15:31;;;;;;;20.73;10.23;;;4.10;99.90;;;;;;5110653;27;20207;-80
2021/12/09 00:17:58;;;;;;;13.17;9.13;;;4.10;99.90;;;;;;5110131;28;20631;-82
2021/12/09 00:20:24;;;;;;;19.57;9.57;;;4.10;99.90;;;;;;5109885;28;20705;-84
2021/12/09 00:22:51;;;;;;;18.20;8.23;;;4.20;99.90;;;;;;5109879;28;20204;-82
2021/12/09 00:25:18;;;;;;;18.83;10.23;;;4.20;99.90;;;;;;5110295;28;20209;-80
2021/12/09 00:27:45;;;;;;;20.10;9.53;;;4.20;99.90;;;;;;5109173;28;20195;-78
2021/12/09 00:30:14;;;;;;;21.00;9.80;;;4.20;99.90;;;;;;5107748;28;20199;-81
2021/12/09 00:32:41;;;;;;;21.97;10.13;;;4.20;99.90;;;;;;5127342;27;20246;-80
2021/12/09 00:35:09;;;;;;;22.47;8.40;;;4.20;99.90;;;;;;5128509;27;20199;-81
2021/12/09 00:37:40;;;;;;;22.63;10.43;;;4.20;99.90;;;;;;5108674;28;20211;-85
2021/12/09 00:40:09;;;;;;;20.40;9.07;;;4.20;99.90;;;;;;5108617;28;20227;-80
2021/12/09 00:42:36;;;;;;;15.40;8.53;;;4.20;99.90;;;;;;5109089;28;20207;-81
2021/12/09 00:45:04;;;;;;;17.10;8.50;;;4.20;99.90;;;;;;5119683;27;20199;-80
2021/12/09 00:47:32;;;;;;;17.43;9.43;;;4.20;99.90;;;;;;5125396;27;20203;-78
2021/12/09 00:49:59;;;;;;;22.57;9.20;;;4.20;99.90;;;;;;5108575;28;20592;-78
2021/12/09 00:52:27;;;;;;;19.60;9.23;;;4.20;99.90;;;;;;5108460;28;20199;-78
2021/12/09 00:54:55;;;;;;;19.60;9.77;;;4.20;99.90;;;;;;5108226;28;20785;-84
2021/12/09 00:57:23;;;;;;;19.70;8.73;;;4.20;99.90;;;;;;5108455;28;20336;-80
2021/12/09 00:59:50;;;;;;;17.43;8.60;;;4.20;99.90;;;;;;5108695;28;20203;-83
2021/12/09 01:02:17;;;;;;;21.50;8.40;;;4.20;99.90;;;;;;5108607;28;20204;-79
2021/12/09 01:04:47;;;;;;;19.73;9.50;;;4.20;99.90;;;;;;5108519;28;20208;-83
2021/12/09 01:07:15;;;;;;;17.53;8.97;;;4.20;99.90;;;;;;5107650;27;20207;-78
2021/12/09 01:09:42;;;;;;;15.20;8.23;;;4.30;99.90;;;;;;5108387;28;20199;-79
2021/12/09 01:12:10;;;;;;;17.37;10.00;;;4.30;99.90;;;;;;5107443;28;20199;-79
2021/12/09 01:14:37;;;;;;;21.77;9.17;;;4.30;99.90;;;;;;5108291;28;20203;-80
2021/12/09 01:17:04;;;;;;;16.60;8.33;;;4.30;99.90;;;;;;5108214;28;20226;-85
2021/12/09 01:19:31;;;;;;;21.50;10.43;;;4.30;99.90;;;;;;5106715;28;20199;-80
2021/12/09 01:21:59;;;;;;;22.60;9.67;;;4.30;99.90;;;;;;5107827;28;20223;-82
2021/12/09 01:24:26;;;;;;;17.50;9.23;;;4.20;99.90;;;;;;5108705;28;20807;-82
2021/12/09 01:26:53;;;;;;;19.03;9.10;;;4.20;99.90;;;;;;5108279;28;20226;-78
2021/12/09 01:29:29;;;;;;;20.33;9.53;;;4.20;99.90;;;;;;5124506;27;20202;-79
2021/12/09 01:32:00;;;;;;;20.00;9.53;;;4.20;99.90;;;;;;5129440;27;20194;-80
2021/12/09 01:34:27;;;;;;;18.83;10.13;;;4.20;99.90;;;;;;5128341;28;20199;-80
2021/12/09 01:36:54;;;;;;;21.23;9.93;;;4.20;99.90;;;;;;5108781;28;20651;-79
2021/12/09 01:39:22;;;;;;;22.20;9.77;;;4.10;99.90;;;;;;5108675;28;20843;-78
2021/12/09 01:41:50;;;;;;;21.17;9.57;;;4.10;99.90;;;;;;5108552;28;20220;-83
2021/12/09 01:44:16;;;;;;;20.07;9.53;;;4.00;99.90;;;;;;5114224;28;20198;-84
2021/12/09 01:46:43;;;;;;;19.43;9.63;;;4.00;99.90;;;;;;5129323;28;20199;-79
2021/12/09 01:49:10;;;;;;;22.23;10.50;;;4.00;99.90;;;;;;5125098;28;20228;-79
2021/12/09 01:51:37;;;;;;;17.00;9.03;;;3.90;99.90;;;;;;5108595;28;20253;-82
2021/12/09 01:54:04;;;;;;;18.47;9.70;;;3.90;99.90;;;;;;5108794;28;20199;-82
2021/12/09 01:56:32;;;;;;;20.27;9.60;;;3.80;99.90;;;;;;5109039;28;20196;-81
2021/12/09 01:59:02;;;;;;;19.77;9.70;;;3.80;99.90;;;;;;5112122;28;20223;-80
2021/12/09 02:01:29;;;;;;;16.03;9.27;;;3.80;99.90;;;;;;5128791;28;20219;-79
2021/12/09 02:03:57;;;;;;;24.43;9.30;;;3.80;99.90;;;;;;5127450;28;20602;-80
2021/12/09 02:06:25;;;;;;;19.90;9.93;;;3.80;99.90;;;;;;5130145;27;20195;-85
2021/12/09 02:08:52;;;;;;;25.27;9.50;;;3.80;99.90;;;;;;5128123;27;20202;-79
2021/12/09 02:11:19;;;;;;;19.20;8.47;;;3.70;99.90;;;;;;5111689;28;20207;-81
2021/12/09 02:13:50;;;;;;;17.77;8.47;;;3.70;99.90;;;;;;5111110;28;20203;-78
2021/12/09 02:16:17;;;;;;;16.13;9.23;;;3.70;99.90;;;;;;5110425;28;20215;-79
2021/12/09 02:18:44;;;;;;;22.43;10.10;;;3.70;99.90;;;;;;5110480;28;20516;-80
2021/12/09 02:21:15;;;;;;;18.07;8.90;;;3.70;99.90;;;;;;5110406;28;20250;-79
2021/12/09 02:23:44;;;;;;;23.47;9.47;;;3.70;99.90;;;;;;5109953;28;20584;-81
2021/12/09 02:26:12;;;;;;;15.93;8.43;;;3.70;99.90;;;;;;5121483;27;20238;-81
2021/12/09 02:28:40;;;;;;;22.77;10.13;;;3.60;99.90;;;;;;5131299;27;20194;-83
2021/12/09 02:31:07;;;;;;;18.53;9.23;;;3.60;99.90;;;;;;5131012;27;20199;-81
2021/12/09 02:33:34;;;;;;;21.87;9.17;;;3.60;99.90;;;;;;5131254;27;20254;-81
2021/12/09 02:36:01;;;;;;;22.70;9.97;;;3.60;99.90;;;;;;5130073;27;20207;-79
2021/12/09 02:38:29;;;;;;;17.77;9.30;;;3.60;99.90;;;;;;5130555;27;20211;-81
2021/12/09 02:40:58;;;;;;;17.77;9.43;;;3.60;99.90;;;;;;5122348;27;20231;-79
2021/12/09 02:43:27;;;;;;;20.67;9.90;;;3.60;99.90;;;;;;5110793;28;20192;-81
2021/12/09 02:45:55;;;;;;;23.83;9.80;;;3.50;99.90;;;;;;5128903;27;20211;-79
2021/12/09 02:48:25;;;;;;;23.00;9.00;;;3.50;99.90;;;;;;5131463;27;20234;-80
2021/12/09 02:50:53;;;;;;;15.63;9.43;;;3.50;99.90;;;;;;5131731;27;20188;-80
2021/12/09 02:53:20;;;;;;;21.40;10.00;;;3.50;99.90;;;;;;5131632;27;20195;-82
2021/12/09 02:55:48;;;;;;;19.57;10.17;;;3.60;99.90;;;;;;5114416;27;20479;-82
2021/12/09 02:58:16;;;;;;;21.77;9.63;;;3.60;99.90;;;;;;5110936;28;20195;-81
2021/12/09 03:00:54;;;;;;;18.90;9.93;;;3.50;99.90;;;;;;5110811;28;20207;-83
2021/12/09 03:03:21;;;;;;;21.93;10.57;;;3.50;99.90;;;;;;5110377;28;20576;-81
2021/12/09 03:05:47;;;;;;;22.80;10.20;;;3.60;99.90;;;;;;5111214;28;20203;-82
2021/12/09 03:08:20;;;;;;;20.97;8.83;;;3.60;99.90;;;;;;5111963;28;20204;-81
2021/12/09 03:10:48;;;;;;;22.97;10.13;;;3.60;99.90;;;;;;5111162;27;20192;-81
2021/12/09 03:13:17;;;;;;;27.20;11.43;;;3.60;99.90;;;;;;5110975;28;20215;-80
2021/12/09 03:15:43;;;;;;;24.10;10.77;;;3.60;99.90;;;;;;5125865;27;20595;-78
2021/12/09 03:18:10;;;;;;;20.67;9.87;;;3.60;99.90;;;;;;5129943;27;20607;-78
2021/12/09 03:20:37;;;;;;;24.77;10.43;;;3.60;99.90;;;;;;5131409;27;20199;-81
2021/12/09 03:23:04;;;;;;;18.23;9.77;;;3.60;99.90;;;;;;5132777;27;20210;-83
2021/12/09 03:25:30;;;;;;;23.23;9.53;;;3.70;99.90;;;;;;5115642;27;20234;-81
2021/12/09 03:27:59;;;;;;;23.13;10.57;;;3.70;99.90;;;;;;5110852;28;20270;-82
2021/12/09 03:30:26;;;;;;;21.73;10.10;;;3.70;99.90;;;;;;5113338;27;20681;-81
2021/12/09 03:32:54;;;;;;;20.57;9.67;;;3.70;99.90;;;;;;5131403;27;20242;-77
2021/12/09 03:35:21;;;;;;;24.23;10.43;;;3.70;99.90;;;;;;5130128;27;20191;-79
2021/12/09 03:37:47;;;;;;;18.50;10.10;;;3.70;99.90;;;;;;5129345;27;20207;-80
2021/12/09 03:40:15;;;;;;;26.23;10.03;;;3.70;99.90;;;;;;5118812;27;20603;-83
2021/12/09 03:42:43;;;;;;;26.77;10.37;;;3.70;99.90;;;;;;5109016;28;20224;-81
2021/12/09 03:45:12;;;;;;;19.23;9.77;;;3.80;99.90;;;;;;5120435;27;20207;-79
2021/12/09 03:47:40;;;;;;;25.73;10.37;;;3.80;99.90;;;;;;5129111;27;20191;-81
2021/12/09 03:50:09;;;;;;;23.77;9.63;;;3.80;99.90;;;;;;5129297;27;20194;-79
2021/12/09 03:52:37;;;;;;;19.60;9.17;;;3.80;99.90;;;;;;5129340;27;20202;-78
2021/12/09 03:55:05;;;;;;;23.57;10.67;;;3.80;99.90;;;;;;5119727;27;20222;-80
2021/12/09 03:57:32;;;;;;;23.97;10.13;;;3.80;99.90;;;;;;5108532;28;20282;-79
2021/12/09 03:59:59;;;;;;;29.10;11.43;;;3.80;99.90;;;;;;5109535;28;20195;-78
2021/12/09 04:02:28;;;;;;;26.50;10.10;;;3.80;99.90;;;;;;5108514;27;20220;-78
2021/12/09 04:04:54;;;;;;;19.60;9.60;;;3.80;99.90;;;;;;5109453;28;20211;-80
2021/12/09 04:07:21;;;;;;;23.70;10.43;;;3.80;99.90;;;;;;5109362;28;20200;-82
2021/12/09 04:09:48;;;;;;;23.43;10.13;;;3.80;99.90;;;;;;5108948;27;20215;-79
2021/12/09 04:12:15;;;;;;;25.20;9.73;;;3.70;99.90;;;;;;5109370;28;20200;-81
2021/12/09 04:14:42;;;;;;;23.97;9.37;;;3.70;99.90;;;;;;5109670;27;20249;-80
2021/12/09 04:17:09;;;;;;;19.07;9.97;;;3.70;99.90;;;;;;5109432;28;20690;-80
2021/12/09 04:19:38;;;;;;;24.63;10.37;;;3.70;99.90;;;;;;5109220;28;20603;-84
2021/12/09 04:22:05;;;;;;;22.00;11.47;;;3.70;99.90;;;;;;5109026;28;20228;-82
2021/12/09 04:24:32;;;;;;;28.63;10.33;;;3.60;99.90;;;;;;5109373;27;20208;-78
2021/12/09 04:26:59;;;;;;;22.90;11.10;;;3.60;99.90;;;;;;5110666;28;20220;-81
2021/12/09 04:29:26;;;;;;;22.07;9.90;;;3.60;99.90;;;;;;5109437;28;20207;-82
2021/12/09 04:31:52;;;;;;;20.37;10.10;;;3.60;99.90;;;;;;5123196;27;20203;-82
2021/12/09 04:34:20;;;;;;;29.57;11.53;;;3.60;99.90;;;;;;5122020;27;20239;-80
2021/12/09 04:36:49;;;;;;;21.00;10.93;;;3.60;99.90;;;;;;5108930;28;20195;-82
2021/12/09 04:39:16;;;;;;;18.27;11.10;;;3.50;99.90;;;;;;5108882;28;20645;-81
2021/12/09 04:41:43;;;;;;;19.90;9.97;;;3.50;99.90;;;;;;5109848;28;20215;-79
2021/12/09 04:44:11;;;;;;;18.60;10.23;;;3.40;99.90;;;;;;5109810;27;20514;-78
2021/12/09 04:46:38;;;;;;;22.73;10.73;;;3.40;99.90;;;;;;5109941;28;20215;-79
2021/12/09 04:49:05;;;;;;;24.37;11.63;;;3.40;99.90;;;;;;5109663;28;20203;-83
2021/12/09 04:51:33;;;;;;;24.77;10.60;;;3.30;99.90;;;;;;5108773;27;20208;-82
2021/12/09 04:54:01;;;;;;;20.17;11.77;;;3.30;99.90;;;;;;5109576;28;20223;-81
2021/12/09 04:56:28;;;;;;;25.50;11.40;;;3.20;99.90;;;;;;5109189;28;20639;-84
2021/12/09 04:58:55;;;;;;;22.13;10.57;;;3.30;99.90;;;;;;5109757;28;20199;-83
2021/12/09 05:01:23;;;;;;;22.00;10.13;;;3.20;99.90;;;;;;5109792;27;20204;-84
2021/12/09 05:03:51;;;;;;;19.17;10.53;;;3.20;99.90;;;;;;5109469;28;20553;-80
2021/12/09 05:06:19;;;;;;;19.83;10.17;;;3.20;99.90;;;;;;5109029;28;20649;-80
2021/12/09 05:08:48;;;;;;;21.83;11.30;;;3.10;99.90;;;;;;5106627;28;20276;-80
2021/12/09 05:11:30;;;;;;;20.73;10.13;;;3.10;99.90;;;;;;5107464;28;20928;-80
2021/12/09 05:13:58;;;;;;;20.63;10.77;;;3.10;99.90;;;;;;5107793;27;20211;-80
2021/12/09 05:16:25;;;;;;;28.33;10.37;;;3.10;99.90;;;;;;5107273;28;20215;-81
2021/12/09 05:18:58;;;;;;;30.47;11.90;;;3.00;99.90;;;;;;5106961;28;20207;-78
2021/12/09 05:21:28;;;;;;;23.90;10.70;;;3.00;99.90;;;;;;5127293;27;20207;-79
2021/12/09 05:23:55;;;;;;;23.10;10.60;;;3.00;99.90;;;;;;5128236;27;20210;-78
2021/12/09 05:26:27;;;;;;;24.10;11.83;;;3.00;99.90;;;;;;5127962;27;20227;-78
2021/12/09 05:28:56;;;;;;;17.00;10.13;;;3.00;99.90;;;;;;5109274;28;20223;-80
2021/12/09 05:34:09;;;;;;;25.33;10.63;;;3.00;99.90;;;;;;5106884;28;20317;-83
2021/12/09 05:36:36;;;;;;;22.83;10.10;;;3.00;99.90;;;;;;5107407;28;20199;-83
2021/12/09 05:39:03;;;;;;;20.13;10.23;;;3.00;99.90;;;;;;5107128;28;20202;-79
2021/12/09 05:41:33;;;;;;;23.37;10.93;;;2.90;99.90;;;;;;5110180;27;20200;-82
2021/12/09 05:44:00;;;;;;;16.97;9.83;;;3.00;99.90;;;;;;5111568;28;20210;-81
2021/12/09 05:46:27;;;;;;;25.30;10.23;;;2.90;99.90;;;;;;5110370;28;20204;-79
2021/12/09 05:48:55;;;;;;;23.10;10.10;;;3.00;99.90;;;;;;5111107;27;20199;-79
2021/12/09 05:51:23;;;;;;;19.70;9.30;;;3.00;99.90;;;;;;5111504;28;20199;-79
2021/12/09 05:53:50;;;;;;;24.23;9.90;;;3.00;99.90;;;;;;5111963;27;20204;-77
2021/12/09 05:56:17;;;;;;;27.07;9.20;;;3.00;99.90;;;;;;5112266;27;20271;-79
2021/12/09 05:58:45;;;;;;;24.60;9.87;;;2.90;99.90;;;;;;5111494;28;20199;-80
2021/12/09 06:01:13;;;;;;;29.17;9.60;;;2.90;99.90;;;;;;5112489;28;20214;-80
2021/12/09 06:03:39;;;;;;;27.73;9.53;;;2.90;99.90;;;;;;5111492;28;20219;-79
2021/12/09 06:06:07;;;;;;;26.90;9.77;;;2.90;99.90;;;;;;5112843;27;20227;-81
2021/12/09 06:08:36;;;;;;;26.77;9.80;;;2.90;99.90;;;;;;5111149;28;20200;-82
2021/12/09 06:11:03;;;;;;;25.50;9.90;;;2.90;99.90;;;;;;5111800;28;20783;-79
2021/12/09 06:13:32;;;;;;;22.73;9.43;;;2.90;99.90;;;;;;5111626;27;20623;-80
2021/12/09 06:16:01;;;;;;;23.30;9.33;;;2.90;99.90;;;;;;5110813;28;20239;-81
2021/12/09 06:18:28;;;;;;;24.87;9.20;;;2.90;99.90;;;;;;5111706;28;20206;-78
2021/12/09 06:20:54;;;;;;;17.70;8.70;;;2.90;99.90;;;;;;5112112;28;20218;-82
2021/12/09 06:23:21;;;;;;;23.40;9.17;;;3.00;99.90;;;;;;5111588;27;20220;-80
2021/12/09 06:25:49;;;;;;;22.80;8.73;;;3.00;99.90;;;;;;5112151;28;20231;-80
2021/12/09 06:28:16;;;;;;;26.80;9.23;;;3.00;99.90;;;;;;5127570;27;20211;-82
2021/12/09 06:30:43;;;;;;;31.40;10.33;;;3.10;99.90;;;;;;5131598;27;20206;-82
2021/12/09 06:33:11;;;;;;;24.50;9.17;;;3.10;99.90;;;;;;5111332;28;20224;-80
2021/12/09 06:35:39;;;;;;;21.93;9.30;;;3.00;99.90;;;;;;5111217;28;20603;-77
2021/12/09 06:38:11;;;;;;;32.60;9.33;;;3.10;99.90;;;;;;5112177;27;20238;-80
2021/12/09 06:40:38;;;;;;;23.27;9.63;;;3.10;99.90;;;;;;5109404;28;20200;-81
2021/12/09 06:43:06;;;;;;;23.80;9.60;;;3.10;99.90;;;;;;5109156;28;20230;-79
2021/12/09 06:45:33;;;;;;;24.13;8.93;;;3.10;99.90;;;;;;5126234;27;20191;-80
2021/12/09 06:48:00;;;;;;;24.03;9.93;;;3.20;99.90;;;;;;5129309;27;20211;-81
2021/12/09 06:50:28;;;;;;;29.07;9.53;;;3.20;99.90;;;;;;5130129;27;20210;-79
2021/12/09 06:52:55;;;;;;;21.73;8.20;;;3.20;99.90;;;;;;5127254;27;20286;-79
2021/12/09 06:55:22;;;;;;;20.57;9.17;;;3.20;99.90;;;;;;5109823;28;20195;-80
2021/12/09 06:57:50;;;;;;;23.63;9.33;;;3.20;99.90;;;;;;5110281;28;20525;-81
2021/12/09 07:00:20;;;;;;;23.20;9.03;;;3.30;99.90;;;;;;5110123;27;20816;-81
2021/12/09 07:02:48;;;;;;;34.33;9.67;;;3.20;99.90;;;;;;5109976;27;20216;-83
2021/12/09 07:05:16;;;;;;;29.77;10.07;;;3.30;99.90;;;;;;5109592;28;20207;-84
2021/12/09 07:07:44;;;;;;;26.30;9.37;;;3.30;99.90;;;;;;5109520;28;20522;-80
2021/12/09 07:10:13;;;;;;;24.80;9.33;;;3.30;99.90;;;;;;5110517;28;20196;-79
2021/12/09 07:12:41;;;;;;;31.63;10.43;;;3.40;99.90;;;;;;5110408;27;20208;-80
2021/12/09 07:15:11;;;;;;;27.60;9.50;;;3.40;99.90;;;;;;5110979;28;20500;-80
2021/12/09 07:17:38;;;;;;;25.73;10.23;;;3.50;99.90;;;;;;5109823;27;20210;-78
2021/12/09 07:20:08;;;;;;;25.17;9.07;;;3.50;99.90;;;;;;5109870;28;20199;-80
2021/12/09 07:22:35;;;;;;;25.10;11.33;;;3.50;99.90;;;;;;5109588;28;20231;-82
2021/12/09 07:25:04;;;;;;;30.47;11.23;;;3.60;99.90;;;;;;5109723;28;20652;-81
2021/12/09 07:27:30;;;;;;;25.33;11.10;;;3.60;99.90;;;;;;5110049;28;20212;-83
2021/12/09 07:29:57;;;;;;;26.83;10.23;;;3.60;99.90;;;;;;5109682;28;20258;-80
2021/12/09 07:32:24;;;;;;;27.53;11.40;;;3.70;99.90;;;;;;5109344;27;20240;-80
2021/12/09 07:34:51;;;;;;;27.70;11.07;;;3.70;99.90;;;;;;5110097;28;20223;-78
2021/12/09 07:37:18;;;;;;;27.17;10.03;;;3.70;99.90;;;;;;5109811;27;20572;-83
2021/12/09 07:39:44;;;;;;;28.63;10.83;;;3.70;99.90;;;;;;5109592;28;20200;-80
2021/12/09 07:42:15;;;;;;;33.03;11.63;;;3.70;99.90;;;;;;5109647;28;20207;-80
2021/12/09 07:44:42;;;;;;;29.93;11.20;;;3.80;99.90;;;;;;5110071;28;20196;-79
2021/12/09 07:47:09;;;;;;;32.27;12.63;;;3.80;99.90;;;;;;5110014;28;20196;-80
2021/12/09 07:49:36;;;;;;;26.17;11.30;;;3.80;99.90;;;;;;5115030;27;20210;-80
2021/12/09 07:52:04;;;;;;;32.23;12.00;;;3.80;99.90;;;;;;5130116;27;20203;-79
2021/12/09 07:54:31;;;;;;;26.17;11.30;;;3.80;99.90;;;;;;5119244;27;20501;-80
2021/12/09 07:56:58;;;;;;;23.13;10.83;;;3.80;99.90;;;;;;5109456;28;20216;-79
2021/12/09 07:59:26;;;;;;;21.17;10.63;;;3.90;99.90;;;;;;5109195;28;20204;-78
2021/12/09 08:01:53;;;;;;;27.87;12.57;;;3.80;99.90;;;;;;5109576;27;20211;-82
2021/12/09 08:04:20;;;;;;;29.80;11.97;;;3.80;99.90;;;;;;5109127;28;20220;-82
2021/12/09 08:06:47;;;;;;;29.63;11.37;;;3.80;99.90;;;;;;5109754;28;20196;-83
2021/12/09 08:09:14;;;;;;;26.20;10.60;;;3.80;99.90;;;;;;5118273;27;20203;-80
2021/12/09 08:11:42;;;;;;;31.53;10.40;;;3.90;99.90;;;;;;5129778;27;20360;-81
2021/12/09 08:14:11;;;;;;;27.20;10.33;;;3.80;99.90;;;;;;5128026;27;20206;-81
2021/12/09 08:16:40;;;;;;;27.40;10.10;;;3.80;99.90;;;;;;5109160;27;20207;-78
2021/12/09 08:19:07;;;;;;;26.60;10.00;;;3.80;99.90;;;;;;5108090;28;20575;-79
2021/12/09 08:21:36;;;;;;;25.30;11.23;;;3.80;99.90;;;;;;5122910;27;20222;-79
2021/12/09 08:24:11;;;;;;;24.47;9.83;;;3.80;99.90;;;;;;5042876;27;20367;-78
2021/12/09 08:26:38;;;;;;;32.20;11.63;;;3.80;99.90;;;;;;5114687;27;20315;-79
2021/12/09 08:29:06;;;;;;;33.00;11.80;;;3.80;99.90;;;;;;5107755;28;20191;-78
2021/12/09 08:31:34;;;;;;;33.10;11.60;;;3.90;99.90;;;;;;5107531;28;20208;-80
2021/12/09 08:34:02;;;;;;;26.03;10.13;;;3.90;99.90;;;;;;5108088;28;20535;-79
2021/12/09 08:36:30;;;;;;;31.53;11.90;;;3.90;99.90;;;;;;5121566;27;20522;-82
2021/12/09 08:38:57;;;;;;;26.00;11.23;;;3.90;99.90;;;;;;5119504;27;20212;-83
2021/12/09 08:41:25;;;;;;;25.80;11.67;;;4.00;99.90;;;;;;5108222;28;20596;-81
2021/12/09 08:43:52;;;;;;;32.70;12.53;;;4.00;99.90;;;;;;5109471;28;20223;-81
2021/12/09 08:46:19;;;;;;;30.33;12.43;;;4.00;99.90;;;;;;5111841;27;20210;-81
2021/12/09 08:48:47;;;;;;;26.47;12.80;;;4.00;99.90;;;;;;5125039;27;20195;-82
2021/12/09 08:51:16;;;;;;;27.30;12.23;;;4.10;99.90;;;;;;5135407;27;20260;-82
2021/12/09 08:53:43;;;;;;;35.30;14.17;;;4.10;99.90;;;;;;5129446;27;20603;-83
2021/12/09 08:56:10;;;;;;;33.93;15.27;;;4.20;99.90;;;;;;5109692;27;20227;-83
2021/12/09 08:58:39;;;;;;;32.27;15.07;;;4.20;99.90;;;;;;5108819;28;20850;-84
2021/12/09 09:01:11;;;;;;;33.10;15.13;;;4.20;99.90;;;;;;5110517;28;20207;-84
2021/12/09 09:03:38;;;;;;;34.03;16.10;;;4.30;99.90;;;;;;5109321;28;20227;-82
2021/12/09 09:06:05;;;;;;;32.20;15.27;;;4.30;99.90;;;;;;5109455;28;20204;-84
2021/12/09 09:08:34;;;;;;;32.50;17.00;;;4.40;99.90;;;;;;5109514;28;20210;-83
2021/12/09 09:11:01;;;;;;;37.20;16.57;;;4.40;99.90;;;;;;5109964;27;20220;-83
2021/12/09 09:13:28;;;;;;;33.30;16.80;;;4.40;99.90;;;;;;5109524;28;20289;-82
2021/12/09 09:15:54;;;;;;;33.63;17.60;;;4.50;99.90;;;;;;5107750;28;20192;-81
2021/12/09 09:18:22;;;;;;;31.37;17.10;;;4.50;99.90;;;;;;5108540;27;20200;-81
2021/12/09 09:20:49;;;;;;;32.10;17.30;;;4.50;99.90;;;;;;5128719;27;20206;-80
2021/12/09 09:23:19;;;;;;;36.93;18.23;;;4.50;99.90;;;;;;5130034;27;20254;-82
2021/12/09 09:25:48;;;;;;;36.73;18.20;;;4.50;99.90;;;;;;5129202;27;20691;-81
2021/12/09 09:28:15;;;;;;;40.17;19.27;;;4.50;99.90;;;;;;5116782;27;20215;-81
2021/12/09 09:30:48;;;;;;;28.93;16.57;;;4.60;99.90;;;;;;5109603;28;20199;-81
2021/12/09 09:33:17;;;;;;;30.63;18.07;;;4.60;99.90;;;;;;5109034;28;20339;-81
2021/12/09 09:35:45;;;;;;;42.40;17.87;;;4.60;99.90;;;;;;5109751;28;20215;-81
2021/12/09 09:38:13;;;;;;;33.13;18.23;;;4.60;99.90;;;;;;5123516;28;20203;-80
2021/12/09 09:40:45;;;;;;;29.03;16.20;;;4.60;99.90;;;;;;5128933;28;20214;-81
2021/12/09 09:43:26;;;;;;;34.33;17.97;;;4.60;99.90;;;;;;5124768;28;21204;-82
2021/12/09 09:45:53;;;;;;;33.17;16.47;;;4.60;99.90;;;;;;5125483;28;20211;-81
2021/12/09 09:48:21;;;;;;;31.70;16.57;;;4.70;99.90;;;;;;5127243;28;20203;-80
2021/12/09 09:50:49;;;;;;;30.47;18.97;;;4.70;99.90;;;;;;5129049;28;20206;-81
2021/12/09 09:53:17;;;;;;;33.47;17.00;;;4.80;99.90;;;;;;5115609;28;20207;-81
2021/12/09 09:55:46;;;;;;;32.57;16.80;;;4.90;99.90;;;;;;5109158;28;20690;-83
2021/12/09 09:58:15;;;;;;;31.53;17.50;;;5.00;99.90;;;;;;5107516;28;20928;-82
2021/12/09 10:00:42;;;;;;;31.20;18.43;;;5.00;99.90;;;;;;5108405;28;20215;-82
2021/12/09 10:03:16;;;;;;;31.03;16.60;;;5.00;99.90;;;;;;5108819;28;20235;-81
2021/12/09 10:05:44;;;;;;;37.57;19.20;;;5.10;99.90;;;;;;5129793;28;20268;-81
2021/12/09 10:08:13;;;;;;;39.73;20.00;;;5.10;99.90;;;;;;5126933;28;20199;-82
2021/12/09 10:10:41;;;;;;;35.23;18.70;;;5.10;99.90;;;;;;5124346;28;20211;-82
2021/12/09 10:13:13;;;;;;;33.93;17.17;;;5.20;99.90;;;;;;5110459;28;20210;-81
2021/12/09 10:15:44;;;;;;;29.60;18.20;;;5.20;99.90;;;;;;5127139;28;20230;-81
2021/12/09 10:18:13;;;;;;;27.67;16.70;;;5.30;99.90;;;;;;5127809;28;20183;-80
2021/12/09 10:20:46;;;;;;;36.27;19.83;;;5.30;99.90;;;;;;5127524;28;20187;-81
2021/12/09 10:23:24;;;;;;;36.83;18.93;;;5.40;99.90;;;;;;5126599;28;20215;-81
2021/12/09 10:26:13;;;;;;;37.47;18.67;;;5.40;99.90;;;;;;5108196;28;20226;-81
2021/12/09 10:28:44;;;;;;;36.43;18.40;;;5.40;99.90;;;;;;5110467;27;20869;-80
2021/12/09 10:31:15;;;;;;;39.17;20.13;;;5.40;99.90;;;;;;5111437;27;20723;-82
2021/12/09 10:34:28;;;;;;;37.00;19.73;;;5.40;99.90;;;;;;5109630;28;20232;-82
2021/12/09 10:36:59;;;;;;;43.40;20.23;;;5.40;99.90;;;;;;5045834;28;20198;-81
2021/12/09 10:39:31;;;;;;;40.43;20.47;;;5.50;99.90;;;;;;5044663;28;20939;-79
2021/12/09 10:42:01;;;;;;;40.93;21.00;;;5.50;99.90;;;;;;5083717;28;20214;-80
2021/12/09 10:44:44;;;;;;;38.77;20.33;;;5.60;99.90;;;;;;5109506;28;20228;-80
2021/12/09 10:47:20;;;;;;;37.90;21.07;;;5.60;99.90;;;;;;5110092;28;20207;-80
2021/12/09 10:49:55;;;;;;;36.43;21.17;;;5.60;99.90;;;;;;5109243;28;20203;-79
2021/12/09 10:52:36;;;;;;;36.10;22.10;;;5.60;99.90;;;;;;5109615;27;20207;-80
2021/12/09 10:55:11;;;;;;;38.90;20.90;;;5.70;99.90;;;;;;5126313;27;20219;-80
2021/12/09 10:57:38;;;;;;;34.40;19.17;;;5.60;99.90;;;;;;5129848;27;20183;-80
2021/12/09 11:00:20;;;;;;;35.53;20.13;;;5.60;99.90;;;;;;5129891;27;20939;-81
2021/12/09 11:03:17;;;;;;;38.10;19.37;;;5.60;99.90;;;;;;5123958;27;20204;-80
2021/12/09 11:05:48;;;;;;;35.87;20.57;;;5.60;99.90;;;;;;5109592;28;20188;-79
2021/12/09 11:08:18;;;;;;;36.20;21.33;;;5.60;99.90;;;;;;5110187;28;20207;-80
2021/12/09 11:10:48;;;;;;;36.40;20.43;;;5.60;99.90;;;;;;5108642;27;20250;-80
2021/12/09 11:13:17;;;;;;;30.93;19.47;;;5.70;99.90;;;;;;5109671;28;20204;-80
2021/12/09 11:15:47;;;;;;;40.47;20.43;;;5.70;99.90;;;;;;5110149;27;20215;-81
2021/12/09 11:18:33;;;;;;;33.23;19.07;;;5.70;99.90;;;;;;5109466;28;20200;-82
2021/12/09 11:21:03;;;;;;;37.73;19.50;;;5.70;99.90;;;;;;5127874;27;20210;-81
2021/12/09 11:23:40;;;;;;;31.80;19.70;;;5.80;99.90;;;;;;5110722;28;20612;-81
2021/12/09 11:26:37;;;;;;;38.83;20.57;;;5.80;99.90;;;;;;5109168;28;20272;-79
2021/12/09 11:29:09;;;;;;;30.23;19.60;;;5.80;99.90;;;;;;5109793;27;20200;-81
2021/12/09 11:31:56;;;;;;;29.67;18.97;;;5.90;99.90;;;;;;5109644;27;20192;-80
2021/12/09 11:34:28;;;;;;;33.13;18.83;;;5.90;99.90;;;;;;5103338;28;20780;-79
2021/12/09 11:37:00;;;;;;;37.03;21.17;;;5.90;99.90;;;;;;5107676;28;20490;-80
2021/12/09 11:39:35;;;;;;;31.40;20.80;;;5.90;99.90;;;;;;5086750;28;20235;-79
2021/12/09 11:42:15;;;;;;;32.07;19.27;;;6.00;99.90;;;;;;5088790;28;20841;-80
2021/12/09 11:44:44;;;;;;;32.23;19.73;;;6.00;99.90;;;;;;5096217;28;20783;-80
2021/12/09 11:47:10;;;;;;;31.10;19.87;;;6.10;99.90;;;;;;5092383;27;20217;-80
2021/12/09 11:49:39;;;;;;;34.23;20.43;;;6.20;99.90;;;;;;5087847;28;20201;-80
2021/12/09 11:52:06;;;;;;;34.83;20.73;;;6.20;99.90;;;;;;5081425;28;20205;-80
2021/12/09 11:54:33;;;;;;;24.07;17.83;;;6.20;99.90;;;;;;5089247;28;20207;-82
2021/12/09 11:57:18;;;;;;;28.90;18.97;;;6.20;99.90;;;;;;5089371;28;20204;-81
2021/12/09 12:11:35;;;;;;;33.30;20.80;;;6.20;99.90;;;;;;5089763;28;20223;-80
2021/12/09 12:14:16;;;;;;;34.80;21.23;;;6.20;99.90;;;;;;5105293;28;20302;-80
2021/12/09 12:16:55;;;;;;;37.47;22.60;;;6.20;99.90;;;;;;5099417;27;20208;-81
2021/12/09 12:20:18;;;;;;;36.67;21.37;;;6.30;99.90;;;;;;5089647;28;20200;-80
2021/12/09 12:23:05;;;;;;;31.67;22.87;;;6.30;99.90;;;;;;5090193;28;20200;-82
2021/12/09 12:28:45;;;;;;;35.93;24.67;;;6.40;99.90;;;;;;5081147;28;20203;-81
2021/12/09 12:35:06;;;;;;;41.17;23.43;;;6.40;99.90;;;;;;5106374;27;20249;-80
2021/12/09 12:37:49;;;;;;;32.40;21.80;;;6.40;99.90;;;;;;5109559;28;20196;-83
2021/12/09 12:40:22;;;;;;;34.80;22.13;;;6.40;99.90;;;;;;5109057;27;20196;-80
2021/12/09 12:42:54;;;;;;;36.73;22.03;;;6.40;99.90;;;;;;5107733;28;20688;-81
2021/12/09 12:45:46;;;;;;;31.83;21.40;;;6.40;99.90;;;;;;5122521;27;21014;-79
2021/12/09 12:51:33;;;;;;;31.97;20.20;;;6.30;99.90;;;;;;5109715;28;20238;-83
2021/12/09 12:54:06;;;;;;;34.20;22.80;;;6.30;99.90;;;;;;5107944;28;20458;-86
2021/12/09 12:56:42;;;;;;;28.03;21.10;;;6.30;99.90;;;;;;5107814;28;20200;-82
2021/12/09 12:59:28;;;;;;;26.47;19.67;;;6.30;99.90;;;;;;5110366;28;20685;-80
2021/12/09 13:05:06;;;;;;;31.00;21.03;;;6.40;99.90;;;;;;5114976;27;20222;-80
2021/12/09 13:07:45;;;;;;;31.37;22.30;;;6.40;99.90;;;;;;5120124;27;20485;-81
2021/12/09 13:10:27;;;;;;;30.57;20.40;;;6.50;99.90;;;;;;5114441;27;20462;-80
2021/12/09 22:54:30;;;;;;;55.13;26.83;;;4.80;99.90;;;;;;6057072;22;20302;-81
2021/12/09 22:56:57;;;;;;;52.57;28.47;;;4.80;99.90;;;;;;5133069;27;20215;-80
2021/12/09 22:59:26;;;;;;;49.43;28.33;;;4.80;99.90;;;;;;5119283;27;20212;-81
2021/12/09 23:01:52;;;;;;;57.47;28.93;;;4.80;99.90;;;;;;5112761;27;20208;-82